KMSO/MSO METAR and TAF weather

Enter ICAO airport designator
Station Type Date Time Source
KMSO METAR 2021/07/28 03:53 UTC NOAA

KMSO 280353Z 31008KT 6SM HZ CLR 27/07 A3008 RMK AO2 SLP161 T02720072


Station Type Date Time Source
KMSO Decoded METAR 2021/07/28 03:53 UTC NOAA

MISSOULA INTERNATIONAL AIRPORT , MT, United States (KMSO) 46-55N 114-06W 975M
Jul 27, 2021 - 11:53 PM EDT / 2021.07.28 0353 UTC
Wind: from the NW (310 degrees) at 9 MPH (8 KT):0
Visibility: 6 mile(s):0
Sky conditions: clear
Weather: haze
Temperature: 81.0 F (27.2 C)
Dew Point: 45.0 F (7.2 C)
Relative Humidity: 28%
Pressure (altimeter): 30.08 in. Hg (1018 hPa)
ob: KMSO 280353Z 31008KT 6SM HZ CLR 27/07 A3008 RMK AO2 SLP161 T02720072
cycle: 4

Station Type Date Time Source
KMSO TAF 2021/07/28 01:28 UTC NOAA

TAF
AMD KMSO 280126Z 2801/2824 35015G25KT P6SM VCSH BKN200
FM280400 32006KT 6SM FU BKN200
FM281100 VRB03KT 4SM FU BKN200
FM282000 27010G15KT 6SM FU SCT200

Example: see airport list